METAR Reports

Area Airport Weather Conditions

KBDL - Windsor Locks, Connecticut, USA
Distance from station: NE 45mi, 72km
Updated: 4:51PM EST, November 26, 2022
Few Clouds
Few Clouds
 Wind from WSW
Wind: WSW 6 mph , 9 km/h
Temperature: 48°F , 9°C
Wind Chill: 45°F , 7°C
Dew Point: 27°F , -3°C
Humidity: 43%
Barometer: 29.92 inHg , 1013.2 hPa
Clouds: Few Clouds
Visibility: 10 miles , 16 km
Cloud details: Few Clouds 18000 ft
Few Clouds 25000 ft
2022/11/26 21:51 KBDL 262151Z 24005KT 10SM FEW180 FEW250 09/M03 A2992 RMK AO2 SLP132 T00941028
KDXR - Danbury, Connecticut, USA
Distance from station: SSW 15mi, 24km
Updated: 4:53PM EST, November 26, 2022
Clear
Clear
 Wind from SW
Wind: SW 3 mph , 6 km/h
Temperature: 46°F , 8°C
Dew Point: 28°F , -2°C
Humidity: 50%
Barometer: 29.95 inHg , 1014.2 hPa
Clouds: Clear
Visibility: 10 miles , 16 km
2022/11/26 21:53 KDXR 262153Z 22003KT 10SM CLR 08/M02 A2995 RMK AO2 SLP144 T00781022
 
KOXC - Oxford/Waterbury, Connecticut, USA
Distance from station: ESE 16mi, 26km
Updated: 4:51PM EST, November 26, 2022
Clear
Clear
 Wind from WSW
Wind: WSW 5 mph , 7 km/h
Temperature: 48°F , 9°C
Wind Chill: 46°F , 8°C
Dew Point: 27°F , -3°C
Humidity: 43%
Barometer: 29.94 inHg , 1013.9 hPa
Clouds: Clear
Visibility: 10 miles , 16 km
2022/11/26 21:51 KOXC 262151Z 25004KT 10SM CLR 09/M03 A2994 RMK AO2 SLP153 T00941028
KPOU - Poughkeepsie, New York, USA
Distance from station: W 25mi, 40km
Updated: 4:53PM EST, November 26, 2022
Clear
Clear
 Wind from calm
Wind: Calm
Temperature: 52°F , 11°C
Dew Point: 28°F , -2°C
Humidity: 41%
Barometer: 29.93 inHg , 1013.5 hPa
Clouds: Clear
Visibility: 10 miles , 16 km
2022/11/26 21:53 KPOU 262153Z 00000KT 10SM CLR 11/M02 A2993 RMK AO2 SLP134 T01061017
 
KMMK - Meriden, Connecticut, USA
Distance from station: E 30mi, 48km
Updated: 4:53PM EST, November 26, 2022
Clear
Clear
 Wind from calm
Wind: Calm
Temperature: 45°F , 7°C
Dew Point: 28°F , -2°C
Humidity: 53%
Barometer: 29.93 inHg , 1013.5 hPa
Clouds: Clear
Visibility: 10 miles , 16 km
2022/11/26 21:53 KMMK 262153Z AUTO 00000KT 10SM CLR 07/M02 A2993 RMK AO2 SLP136 T00721022
KBDR - Bridgeport, Connecticut, USA
Distance from station: SSE 32mi, 51km
Updated: 4:52PM EST, November 26, 2022
Clear
Clear
 Wind from WSW
Wind: WSW 5 mph , 7 km/h
Temperature: 52°F , 11°C
Dew Point: 30°F , -1°C
Humidity: 44%
Barometer: 29.95 inHg , 1014.2 hPa
Clouds: Clear
Visibility: 10 miles , 16 km
2022/11/26 21:52 KBDR 262152Z 24004KT 10SM CLR 11/M01 A2995 RMK AO2 SLP140 T01061006
 
KHVN - New Haven/Tweed, Connecticut, USA
Distance from station: SE 35mi, 57km
Updated: 4:53PM EST, November 26, 2022
Clear
Clear
 Wind from WSW
Wind: WSW 5 mph , 7 km/h
Temperature: 52°F , 11°C
Dew Point: 37°F , 3°C
Humidity: 58%
Barometer: 29.94 inHg , 1013.9 hPa
Clouds: Clear
Visibility: 10 miles , 16 km
2022/11/26 21:53 KHVN 262153Z 25004KT 10SM CLR 11/03 A2994 RMK AO2 SLP138 T01110028
KSWF - Newburgh/Stewart, New York, USA
Distance from station: W 35mi, 57km
Updated: 4:45PM EST, November 26, 2022
Clear
Clear
 Wind from WSW
Wind: WSW 6 mph , 9 km/h
Temperature: 50°F , 10°C
Wind Chill: 48°F , 9°C
Dew Point: 28°F , -2°C
Humidity: 43%
Barometer: 29.94 inHg , 1013.9 hPa
Clouds: Clear
Visibility: 10 miles , 16 km
2022/11/26 21:45 KSWF 262145Z 24005KT 10SM SKC 10/M02 A2994
 
KHPN - White Plains, New York, USA
Distance from station: SSW 38mi, 62km
Updated: 4:56PM EST, November 26, 2022
Clear
Clear
 Wind from W
Wind: W 7 mph , 11 km/h
Temperature: 52°F , 11°C
Dew Point: 28°F , -2°C
Humidity: 41%
Barometer: 29.95 inHg , 1014.2 hPa
Clouds: Clear
Visibility: 10 miles , 16 km
2022/11/26 21:56 KHPN 262156Z 27006KT 10SM CLR 11/M02 A2995 RMK AO2 SLP145 T01061022
KHFD - Hartford/Brainar, Connecticut, USA
Distance from station: ENE 41mi, 65km
Updated: 4:53PM EST, November 26, 2022
Clear
Clear
 Wind from calm
Wind: Calm
Temperature: 52°F , 11°C
Dew Point: 28°F , -2°C
Humidity: 41%
Barometer: 29.92 inHg , 1013.2 hPa
Clouds: Clear
Visibility: 10 miles , 16 km
2022/11/26 21:53 KHFD 262153Z 00000KT 10SM CLR 11/M02 A2992 RMK AO2 SLP132 T01061022